createdAt,value
2018-09-19T02:38:47.281Z,21.90
2018-09-19T02:41:14.854Z,21.10
2018-09-19T02:43:42.338Z,20.90
2018-09-19T02:46:09.943Z,20.80
2018-09-19T02:48:37.557Z,20.60
2018-09-19T02:51:05.207Z,20.50
2018-09-19T02:53:32.673Z,20.30
2018-09-19T02:56:00.227Z,20.20
2018-09-19T02:58:27.733Z,20.20
2018-09-19T03:00:55.359Z,20.10
2018-09-19T03:03:22.844Z,20.00
2018-09-19T03:05:50.490Z,20.00
2018-09-19T03:08:18.005Z,20.00
2018-09-19T03:10:45.551Z,19.90
2018-09-19T03:13:13.033Z,19.80
2018-09-19T03:15:40.582Z,19.80
2018-09-19T03:18:08.128Z,19.80
2018-09-19T03:20:35.634Z,19.80
2018-09-19T03:23:03.253Z,19.80
2018-09-19T03:25:30.715Z,19.80
2018-09-19T03:27:58.307Z,19.70
2018-09-19T03:30:25.880Z,19.70
2018-09-19T03:32:53.470Z,19.70
2018-09-19T03:35:20.996Z,19.70
2018-09-19T03:37:48.502Z,19.70
2018-09-19T03:40:16.005Z,19.70
2018-09-19T03:42:43.604Z,19.80
2018-09-19T03:45:11.102Z,19.80
2018-09-19T03:47:38.650Z,19.80
2018-09-19T03:50:06.201Z,19.70
2018-09-19T03:52:33.748Z,19.70
2018-09-19T03:55:01.494Z,19.70
2018-09-19T03:57:29.505Z,19.60
2018-09-19T03:59:57.051Z,19.60
2018-09-19T04:02:24.550Z,19.60
2018-09-19T04:04:52.374Z,19.50
2018-09-19T04:07:19.866Z,19.50
2018-09-19T04:09:47.504Z,19.50
2018-09-19T04:12:14.957Z,19.50
2018-09-19T04:14:42.509Z,19.50
2018-09-19T04:17:09.998Z,19.50
2018-09-19T04:19:37.584Z,19.30
2018-09-19T04:22:05.226Z,19.30
2018-09-19T04:24:32.814Z,19.30
2018-09-19T04:27:00.333Z,19.30
2018-09-19T04:29:27.846Z,19.30
2018-09-19T04:31:55.453Z,19.30
2018-09-19T04:34:27.030Z,19.20
2018-09-19T04:36:55.863Z,19.20
2018-09-19T04:39:29.530Z,19.10
2018-09-19T04:41:57.578Z,19.10
2018-09-19T04:44:25.078Z,19.10
2018-09-19T04:46:53.986Z,19.10
2018-09-19T04:49:22.803Z,19.10
2018-09-19T04:52:01.072Z,19.10
2018-09-19T04:54:42.570Z,19.00
2018-09-19T04:57:11.519Z,19.00
2018-09-19T04:59:40.079Z,18.90
2018-09-19T05:02:07.738Z,18.90
2018-09-19T05:07:10.105Z,18.90
2018-09-19T05:09:38.888Z,18.80
2018-09-19T05:12:08.073Z,18.80
2018-09-19T05:14:36.651Z,18.80
2018-09-19T05:17:07.037Z,18.60
2018-09-19T05:19:35.481Z,18.60
2018-09-19T05:22:04.134Z,18.70
2018-09-19T05:24:32.502Z,18.70
2018-09-19T05:27:00.037Z,18.70
2018-09-19T05:29:28.760Z,18.70
2018-09-19T05:31:57.315Z,18.70
2018-09-19T05:34:25.365Z,18.70
2018-09-19T05:36:53.849Z,18.70
2018-09-19T05:39:23.347Z,18.70
2018-09-19T05:41:51.955Z,18.70
2018-09-19T05:44:22.104Z,18.70
2018-09-19T05:46:51.592Z,18.70
2018-09-19T05:49:21.379Z,18.80
2018-09-19T05:54:18.531Z,18.80
2018-09-19T05:56:47.169Z,18.80
2018-09-19T05:59:17.145Z,18.90
2018-09-19T06:01:46.702Z,18.70
2018-09-19T06:04:16.675Z,18.70
2018-09-19T06:06:45.862Z,18.70
2018-09-19T06:09:18.639Z,18.70
2018-09-19T06:11:48.578Z,18.70
2018-09-19T06:14:18.657Z,18.70
2018-09-19T06:16:49.559Z,18.70
2018-09-19T06:19:20.556Z,18.70
2018-09-19T06:21:50.639Z,18.80
2018-09-19T06:24:21.331Z,18.80
2018-09-19T06:26:51.546Z,18.80
2018-09-19T06:29:21.030Z,18.90
2018-09-19T06:31:50.326Z,19.00
2018-09-19T06:34:18.950Z,19.00
2018-09-19T06:36:47.323Z,19.00
2018-09-19T06:39:16.721Z,19.10
2018-09-19T06:41:44.358Z,19.20
2018-09-19T06:44:12.631Z,19.20
2018-09-19T06:46:40.279Z,19.30
2018-09-19T06:49:08.509Z,19.30
2018-09-19T06:51:36.769Z,19.30
2018-09-19T06:54:04.349Z,19.40
2018-09-19T06:56:32.279Z,19.50
2018-09-19T06:58:59.865Z,19.50
2018-09-19T07:01:27.799Z,19.50
2018-09-19T07:03:56.414Z,19.60
2018-09-19T07:06:24.355Z,19.60
2018-09-19T07:08:51.931Z,19.70
2018-09-19T07:11:20.310Z,19.80
2018-09-19T07:13:48.055Z,19.90
2018-09-19T07:16:15.606Z,20.00
2018-09-19T07:18:43.281Z,20.10
2018-09-19T07:21:11.265Z,20.00
2018-09-19T07:23:39.285Z,20.00
2018-09-19T07:26:06.929Z,20.00
2018-09-19T07:28:34.614Z,20.00
2018-09-19T07:31:02.648Z,20.20
2018-09-19T07:33:30.212Z,20.20
2018-09-19T07:35:57.754Z,20.30
2018-09-19T07:38:25.399Z,20.40
2018-09-19T07:40:53.197Z,20.50
2018-09-19T07:43:20.857Z,20.50
2018-09-19T07:45:48.520Z,20.50
2018-09-19T07:48:16.212Z,20.60
2018-09-19T07:50:44.439Z,20.70
2018-09-19T07:53:13.292Z,20.70
2018-09-19T07:55:43.452Z,20.90
2018-09-19T07:58:12.826Z,20.90
2018-09-19T08:00:41.371Z,21.00
2018-09-19T08:03:11.191Z,21.10
2018-09-19T08:05:42.478Z,21.20
2018-09-19T08:08:12.465Z,21.30
2018-09-19T08:10:42.087Z,21.40
2018-09-19T08:13:11.972Z,21.50
2018-09-19T08:15:40.478Z,21.60
2018-09-19T08:18:10.298Z,21.70
2018-09-19T08:20:41.378Z,21.80
2018-09-19T08:23:11.205Z,21.90
2018-09-19T08:25:42.634Z,22.00
2018-09-19T08:28:15.457Z,22.00
2018-09-19T08:30:45.857Z,22.20
2018-09-19T08:33:13.915Z,22.30
2018-09-19T08:35:47.544Z,22.40
2018-09-19T08:38:17.022Z,22.50
2018-09-19T08:40:50.399Z,22.60
2018-09-19T08:43:19.661Z,22.60
2018-09-19T08:45:53.687Z,22.60
2018-09-19T08:48:25.971Z,22.80
2018-09-19T08:50:59.056Z,22.90
2018-09-19T08:56:03.029Z,23.30
2018-09-19T08:58:38.330Z,23.40
2018-09-19T09:01:10.682Z,23.70
2018-09-19T09:03:42.797Z,24.00
2018-09-19T09:06:16.562Z,24.40
2018-09-19T09:08:50.862Z,24.90
2018-09-19T09:11:23.861Z,25.40
2018-09-19T09:13:57.078Z,25.70
2018-09-19T09:16:29.529Z,26.10
2018-09-19T09:18:59.610Z,26.30
2018-09-19T09:21:33.157Z,26.50
2018-09-19T09:24:03.828Z,26.70
2018-09-19T09:26:33.025Z,26.80
2018-09-19T09:29:03.466Z,27.00
2018-09-19T09:31:36.460Z,26.90
2018-09-19T09:34:09.003Z,26.90
2018-09-19T09:36:38.662Z,26.90
2018-09-19T09:39:06.642Z,27.00
2018-09-19T09:41:35.887Z,26.90
2018-09-19T09:44:05.197Z,26.90
2018-09-19T09:46:36.335Z,26.90
2018-09-19T09:49:07.586Z,27.00
2018-09-19T09:51:37.548Z,27.00
2018-09-19T09:54:09.356Z,26.90
2018-09-19T09:56:42.355Z,26.90
2018-09-19T09:59:11.490Z,26.90
2018-09-19T10:01:41.618Z,26.90
2018-09-19T10:04:14.332Z,26.90
2018-09-19T10:06:43.036Z,26.80
2018-09-19T10:09:13.656Z,26.80
2018-09-19T10:11:43.000Z,26.80
2018-09-19T10:14:11.902Z,26.60
2018-09-19T10:16:41.939Z,26.60
2018-09-19T10:19:12.532Z,26.60
2018-09-19T10:21:41.958Z,26.70
2018-09-19T10:24:12.755Z,26.70
2018-09-19T10:26:41.943Z,26.70
2018-09-19T10:29:18.852Z,26.80
2018-09-19T10:31:47.263Z,27.00
2018-09-19T10:34:16.575Z,27.10
2018-09-19T10:36:45.227Z,27.10
2018-09-19T10:41:44.427Z,27.30
2018-09-19T10:44:14.416Z,27.40
2018-09-19T10:46:43.610Z,27.40
2018-09-19T10:49:12.476Z,27.60
2018-09-19T10:51:43.832Z,27.80
2018-09-19T10:54:15.117Z,27.90
2018-09-19T10:56:43.506Z,28.00
2018-09-19T11:01:44.745Z,28.30
2018-09-19T11:04:18.399Z,28.40
2018-09-19T11:06:50.349Z,28.60
2018-09-19T11:09:24.890Z,28.80
2018-09-19T11:12:01.338Z,28.90
2018-09-19T11:14:32.723Z,29.00
2018-09-19T11:17:06.436Z,29.10
2018-09-19T11:47:11.109Z,30.10
2018-09-19T11:49:42.335Z,30.10
2018-09-19T11:52:13.417Z,30.20
2018-09-19T11:54:45.514Z,30.30
2018-09-19T11:57:15.980Z,30.50
2018-09-19T11:59:46.654Z,30.60
2018-09-19T12:02:17.894Z,30.80
2018-09-19T12:04:48.442Z,30.70
2018-09-19T12:07:18.710Z,30.80
2018-09-19T12:09:47.936Z,30.80
2018-09-19T12:12:20.060Z,30.80
2018-09-19T12:14:49.667Z,30.90
2018-09-19T12:17:24.119Z,31.00
2018-09-19T12:19:57.399Z,31.10
2018-09-19T12:22:27.588Z,31.00
2018-09-19T12:24:57.283Z,31.00
2018-09-19T12:27:27.607Z,30.90
2018-09-19T12:29:57.065Z,31.10
2018-09-19T12:32:28.870Z,31.20
2018-09-19T12:35:00.239Z,31.40
2018-09-19T12:37:29.308Z,31.50
2018-09-19T12:40:11.962Z,31.70
2018-09-19T12:42:49.481Z,31.90
2018-09-19T12:45:19.999Z,31.80
2018-09-19T12:47:52.192Z,31.80
2018-09-19T12:50:21.528Z,32.00
2018-09-19T12:52:49.077Z,32.00
2018-09-19T12:55:16.701Z,32.10
2018-09-19T12:57:44.243Z,32.10
2018-09-19T13:00:11.855Z,32.20
2018-09-19T13:02:39.397Z,32.40
2018-09-19T13:05:07.109Z,32.50
2018-09-19T13:07:34.635Z,32.50
2018-09-19T13:10:02.228Z,32.50
2018-09-19T13:12:29.794Z,32.40
2018-09-19T13:14:57.310Z,32.40
2018-09-19T13:17:24.950Z,32.30
2018-09-19T13:19:52.477Z,32.30
2018-09-19T13:22:20.049Z,32.10
2018-09-19T13:24:47.549Z,31.90
2018-09-19T13:27:15.137Z,31.70
2018-09-19T13:29:42.646Z,31.60
2018-09-19T13:32:10.209Z,31.50
2018-09-19T13:34:37.751Z,31.40
2018-09-19T13:37:05.326Z,31.20
2018-09-19T13:39:32.915Z,31.20
2018-09-19T13:42:00.885Z,31.10
2018-09-19T13:44:28.447Z,31.10
2018-09-19T13:46:56.065Z,31.20
2018-09-19T13:49:36.718Z,31.30
2018-09-19T13:52:04.388Z,31.50
2018-09-19T13:54:31.925Z,31.60
2018-09-19T13:56:59.480Z,31.80
2018-09-19T13:59:27.062Z,32.00
2018-09-19T14:01:54.616Z,32.10
2018-09-19T14:04:22.326Z,32.20
2018-09-19T14:06:49.889Z,32.20
2018-09-19T14:09:17.470Z,32.40
2018-09-19T14:11:45.074Z,32.30
2018-09-19T14:14:12.621Z,32.30
2018-09-19T14:16:40.156Z,32.30
2018-09-19T14:19:08.493Z,32.20
2018-09-19T14:21:36.071Z,32.20
2018-09-19T14:24:03.740Z,32.10
2018-09-19T14:26:31.316Z,32.10
2018-09-19T14:28:58.960Z,32.00
2018-09-19T14:31:26.488Z,31.90
2018-09-19T14:33:54.074Z,31.90
2018-09-19T14:36:21.597Z,32.00
2018-09-19T14:38:49.251Z,32.00
2018-09-19T14:41:16.848Z,32.10
2018-09-19T14:43:44.439Z,32.00
2018-09-19T14:46:12.021Z,32.00
2018-09-19T14:48:39.701Z,31.90
2018-09-19T14:51:07.261Z,31.90
2018-09-19T14:53:34.952Z,32.00
2018-09-19T14:56:02.674Z,32.00
2018-09-19T14:58:30.238Z,32.10
2018-09-19T15:00:57.806Z,32.20
2018-09-19T15:03:25.390Z,32.10
2018-09-19T15:05:53.078Z,32.10
2018-09-19T15:08:20.651Z,32.20
2018-09-19T15:10:48.287Z,32.10
2018-09-19T15:13:15.758Z,32.00
2018-09-19T15:15:43.359Z,32.00
2018-09-19T15:18:10.915Z,32.00
2018-09-19T15:20:38.544Z,31.90
2018-09-19T15:23:06.142Z,31.80
2018-09-19T15:25:33.737Z,31.80
2018-09-19T15:28:01.590Z,31.60
2018-09-19T15:30:29.122Z,31.50
2018-09-19T15:32:56.699Z,31.40
2018-09-19T15:35:24.209Z,31.30
2018-09-19T15:37:51.872Z,31.30
2018-09-19T15:40:19.427Z,31.10
2018-09-19T15:42:47.068Z,31.10
2018-09-19T15:45:14.621Z,31.20
2018-09-19T15:47:42.269Z,31.10
2018-09-19T15:50:09.808Z,31.10
2018-09-19T15:52:37.418Z,31.00
2018-09-19T15:55:04.931Z,31.10
2018-09-19T15:57:32.571Z,31.10
2018-09-19T16:00:00.377Z,31.00
2018-09-19T16:02:28.009Z,30.90
2018-09-19T16:04:55.652Z,30.90
2018-09-19T16:07:23.277Z,30.70
2018-09-19T16:09:50.833Z,30.70
2018-09-19T16:12:18.462Z,30.60
2018-09-19T16:14:45.986Z,30.60
2018-09-19T16:17:13.610Z,30.50
2018-09-19T16:19:41.139Z,30.50
2018-09-19T16:22:08.649Z,30.50
2018-09-19T16:24:36.218Z,30.60
2018-09-19T16:27:03.871Z,30.50
2018-09-19T16:29:31.463Z,30.30
2018-09-19T16:31:59.199Z,30.20
2018-09-19T16:34:26.758Z,30.10
2018-09-19T16:36:54.310Z,30.00
2018-09-19T16:39:21.927Z,30.00
2018-09-19T16:41:49.443Z,29.90
2018-09-19T16:44:17.258Z,29.90
2018-09-19T16:46:44.793Z,29.80
2018-09-19T16:49:12.469Z,29.80
2018-09-19T16:51:40.021Z,29.70
2018-09-19T16:54:07.642Z,29.70
2018-09-19T16:56:35.175Z,29.70
2018-09-19T16:59:02.806Z,29.60
2018-09-19T17:01:30.301Z,29.50
2018-09-19T17:03:58.415Z,29.40
2018-09-19T17:06:26.132Z,29.30
2018-09-19T17:08:53.663Z,29.30
2018-09-19T17:11:21.282Z,29.30
2018-09-19T17:13:48.818Z,29.20
2018-09-19T17:16:17.003Z,29.20
2018-09-19T17:18:45.760Z,29.10
2018-09-19T17:21:13.354Z,29.10
2018-09-19T17:23:40.885Z,29.10
2018-09-19T17:26:08.483Z,29.10
2018-09-19T17:28:36.074Z,29.00
2018-09-19T17:31:03.699Z,28.90
2018-09-19T17:33:31.311Z,28.80
2018-09-19T17:35:59.758Z,28.70
2018-09-19T17:38:27.291Z,28.60
2018-09-19T17:40:57.479Z,28.50
2018-09-19T17:43:25.490Z,28.40
2018-09-19T17:45:54.388Z,28.40
2018-09-19T17:48:24.639Z,28.20
2018-09-19T17:50:53.049Z,28.00
2018-09-19T17:53:20.827Z,27.80
2018-09-19T17:55:48.440Z,27.70
2018-09-19T17:58:16.175Z,27.60
2018-09-19T18:00:44.122Z,27.50
2018-09-19T18:03:12.923Z,27.30
2018-09-19T18:05:42.947Z,27.20
2018-09-19T18:08:11.983Z,27.20
2018-09-19T18:10:42.847Z,27.20
2018-09-19T18:13:10.781Z,27.20
2018-09-19T18:15:38.972Z,27.20
2018-09-19T18:18:07.191Z,27.10
2018-09-19T18:20:34.869Z,27.00
2018-09-19T18:23:04.034Z,26.90
2018-09-19T18:25:31.670Z,26.80
2018-09-19T18:27:59.321Z,26.80
2018-09-19T18:30:27.083Z,26.80
2018-09-19T18:32:54.728Z,26.70
2018-09-19T18:35:22.404Z,26.60
2018-09-19T18:37:50.029Z,26.60
2018-09-19T18:40:17.777Z,26.50
2018-09-19T18:42:45.342Z,26.40
2018-09-19T18:45:13.000Z,26.30
2018-09-19T18:47:40.596Z,26.30
2018-09-19T18:50:08.922Z,26.30
2018-09-19T18:52:36.932Z,26.20
2018-09-19T18:55:04.554Z,26.20
2018-09-19T18:57:32.159Z,26.10
2018-09-19T18:59:59.794Z,26.00
2018-09-19T19:02:27.395Z,26.00
2018-09-19T19:04:55.135Z,25.90
2018-09-19T19:07:22.740Z,25.80
2018-09-19T19:09:50.357Z,25.70
2018-09-19T19:12:18.006Z,25.60
2018-09-19T19:14:45.602Z,25.60
2018-09-19T19:17:13.262Z,25.50
2018-09-19T19:19:40.933Z,25.50
2018-09-19T19:22:08.571Z,25.40
2018-09-19T19:24:36.196Z,25.30
2018-09-19T19:27:03.862Z,25.30
2018-09-19T19:29:31.510Z,25.20
2018-09-19T19:31:59.131Z,25.20
2018-09-19T19:34:26.760Z,25.20
2018-09-19T19:36:54.338Z,25.20
2018-09-19T19:39:22.027Z,25.10
2018-09-19T19:41:49.624Z,25.10
2018-09-19T19:44:17.297Z,25.00
2018-09-19T19:46:44.964Z,24.90
2018-09-19T19:49:12.636Z,24.90
2018-09-19T19:51:40.183Z,24.80
2018-09-19T19:54:07.840Z,24.80
2018-09-19T19:56:35.477Z,24.70
2018-09-19T19:59:03.579Z,24.70
2018-09-19T20:01:31.187Z,24.70
2018-09-19T20:03:58.846Z,24.60
2018-09-19T20:06:26.492Z,24.60
2018-09-19T20:08:54.248Z,24.50
2018-09-19T20:11:21.949Z,24.50
2018-09-19T20:13:49.764Z,24.40
2018-09-19T20:16:17.395Z,24.30
2018-09-19T20:18:45.040Z,24.30
2018-09-19T20:21:12.626Z,24.30
2018-09-19T20:23:40.319Z,24.30
2018-09-19T20:26:07.890Z,24.20
2018-09-19T20:28:35.581Z,24.20
2018-09-19T20:31:03.180Z,24.20
2018-09-19T20:33:30.883Z,24.10
2018-09-19T20:35:58.521Z,24.00
2018-09-19T20:38:27.644Z,23.90
2018-09-19T20:40:55.883Z,23.90
2018-09-19T20:43:23.469Z,23.90
2018-09-19T20:45:51.893Z,23.90
2018-09-19T20:48:20.283Z,23.90
2018-09-19T20:50:48.535Z,23.70
2018-09-19T20:53:16.370Z,23.70
2018-09-19T20:55:44.339Z,23.70
2018-09-19T20:58:12.206Z,23.70
2018-09-19T21:00:40.342Z,23.70
2018-09-19T21:03:09.232Z,23.60
2018-09-19T21:05:37.506Z,23.50
2018-09-19T21:08:06.334Z,23.50
2018-09-19T21:10:34.530Z,23.40
2018-09-19T21:13:04.047Z,23.40
2018-09-19T21:15:31.702Z,23.50
2018-09-19T21:18:00.400Z,23.40
2018-09-19T21:20:29.683Z,23.40
2018-09-19T21:22:58.721Z,23.30
2018-09-19T21:25:27.349Z,23.00
2018-09-19T21:27:55.884Z,23.00
2018-09-19T21:30:25.405Z,23.00
2018-09-19T21:32:54.511Z,23.00
2018-09-19T21:35:22.517Z,23.00
2018-09-19T21:37:50.898Z,23.00
2018-09-19T21:40:19.236Z,23.00
2018-09-19T21:42:47.650Z,22.90
2018-09-19T21:45:16.634Z,22.90
2018-09-19T21:47:44.772Z,22.90
2018-09-19T21:50:13.443Z,22.90
2018-09-19T21:52:41.307Z,22.80
2018-09-19T21:55:09.296Z,22.80
2018-09-19T21:57:37.914Z,22.80
2018-09-19T22:00:06.946Z,22.80
2018-09-19T22:02:35.365Z,22.70
2018-09-19T22:05:03.463Z,22.60
2018-09-19T22:07:31.338Z,22.60
2018-09-19T22:09:59.772Z,22.60
2018-09-19T22:12:27.361Z,22.50
2018-09-19T22:14:55.062Z,22.50
2018-09-19T22:17:23.067Z,22.40
2018-09-19T22:19:51.049Z,22.40
2018-09-19T22:22:18.598Z,22.40
2018-09-19T22:24:46.351Z,22.30
2018-09-19T22:27:14.158Z,22.30
2018-09-19T22:29:42.056Z,22.20
2018-09-19T22:32:09.812Z,22.20
2018-09-19T22:34:37.500Z,22.10
2018-09-19T22:37:05.075Z,22.10
2018-09-19T22:39:32.721Z,22.10
2018-09-19T22:42:00.349Z,22.10
2018-09-19T22:44:28.587Z,22.00
2018-09-19T22:46:56.218Z,22.00
2018-09-19T22:49:23.938Z,22.00
2018-09-19T22:51:51.634Z,21.90
2018-09-19T22:54:19.173Z,21.90
2018-09-19T22:56:47.073Z,21.80
2018-09-19T22:59:14.646Z,21.80
2018-09-19T23:01:42.458Z,21.80
2018-09-19T23:04:09.963Z,21.80
2018-09-19T23:06:37.675Z,21.80
2018-09-19T23:09:06.526Z,21.70
2018-09-19T23:11:34.154Z,21.70
2018-09-19T23:14:02.014Z,21.60
2018-09-19T23:16:29.680Z,21.50
2018-09-19T23:18:57.207Z,21.50
2018-09-19T23:21:24.741Z,21.50
2018-09-19T23:23:52.330Z,21.50
2018-09-19T23:26:19.810Z,21.50
2018-09-19T23:28:47.374Z,21.50
2018-09-19T23:31:14.915Z,21.50
2018-09-19T23:33:42.463Z,21.40
2018-09-19T23:36:10.007Z,21.40
2018-09-19T23:38:37.658Z,21.30
2018-09-19T23:41:05.360Z,21.30
2018-09-19T23:43:32.915Z,21.30
2018-09-19T23:46:00.430Z,21.20
2018-09-19T23:48:28.075Z,21.20
2018-09-19T23:50:55.577Z,21.20
2018-09-19T23:53:23.153Z,21.20
2018-09-19T23:55:50.638Z,21.20
2018-09-19T23:58:18.222Z,21.10
